Home > Products > Valid Products > TAF

000
FTUS45 KGJT 250530
TAFGJT
TAF
KGJT 250530Z 2506/2606 15012KT P6SM BKN110
     FM251200 12010KT P6SM -SHRA OVC025
     FM251700 27010G15KT P6SM VCSH SCT030 OVC050
      TEMPO 2520/2524 VRB15G30KT 5SM -TSRA SCT030 BKN040CB=



000
FTUS45 KGJT 250530
TAFGJT
TAF
KGJT 250530Z 2506/2606 15012KT P6SM BKN110
     FM251200 12010KT P6SM -SHRA OVC025
     FM251700 27010G15KT P6SM VCSH SCT030 OVC050
      TEMPO 2520/2524 VRB15G30KT 5SM -TSRA SCT030 BKN040CB=



000
FTUS45 KGJT 250530
TAFGJT
TAF
KGJT 250530Z 2506/2606 15012KT P6SM BKN110
     FM251200 12010KT P6SM -SHRA OVC025
     FM251700 27010G15KT P6SM VCSH SCT030 OVC050
      TEMPO 2520/2524 VRB15G30KT 5SM -TSRA SCT030 BKN040CB=



000
FTUS45 KGJT 250530
TAFGJT
TAF
KGJT 250530Z 2506/2606 15012KT P6SM BKN110
     FM251200 12010KT P6SM -SHRA OVC025
     FM251700 27010G15KT P6SM VCSH SCT030 OVC050
      TEMPO 2520/2524 VRB15G30KT 5SM -TSRA SCT030 BKN040CB=



000
FTUS45 KGJT 250203 AAB
TAFGJT
TAF AMD
KGJT 250203Z 2502/2524 15010KT P6SM FEW070 SCT110
     FM250600 12012G18KT P6SM SCT080
     FM251200 12010KT P6SM -SHRA OVC025
     FM251700 27010G15KT P6SM VCSH SCT030 OVC050
      TEMPO 2520/2524 VRB15G30KT 5SM -TSRA SCT030 BKN040CB=



000
FTUS45 KGJT 250203 AAB
TAFGJT
TAF AMD
KGJT 250203Z 2502/2524 15010KT P6SM FEW070 SCT110
     FM250600 12012G18KT P6SM SCT080
     FM251200 12010KT P6SM -SHRA OVC025
     FM251700 27010G15KT P6SM VCSH SCT030 OVC050
      TEMPO 2520/2524 VRB15G30KT 5SM -TSRA SCT030 BKN040CB=



000
FTUS45 KGJT 250203 AAB
TAFGJT
TAF AMD
KGJT 250203Z 2502/2524 15010KT P6SM FEW070 SCT110
     FM250600 12012G18KT P6SM SCT080
     FM251200 12010KT P6SM -SHRA OVC025
     FM251700 27010G15KT P6SM VCSH SCT030 OVC050
      TEMPO 2520/2524 VRB15G30KT 5SM -TSRA SCT030 BKN040CB=



000
FTUS45 KGJT 250203 AAB
TAFGJT
TAF AMD
KGJT 250203Z 2502/2524 15010KT P6SM FEW070 SCT110
     FM250600 12012G18KT P6SM SCT080
     FM251200 12010KT P6SM -SHRA OVC025
     FM251700 27010G15KT P6SM VCSH SCT030 OVC050
      TEMPO 2520/2524 VRB15G30KT 5SM -TSRA SCT030 BKN040CB=



000
FTUS45 KGJT 250036 AAA
TAFGJT
TAF AMD
KGJT 250036Z 2501/2524 15010G18KT P6SM VCSH FEW070 BKN110
     FM250200 17010KT P6SM SCT070 BKN110
     FM250600 12012G18KT P6SM BKN080
     FM251200 12010KT P6SM -SHRA OVC025
     FM251700 27010G15KT P6SM VCSH SCT030 OVC050
      TEMPO 2520/2524 VRB15G30KT 5SM -TSRA SCT030 BKN040CB=



000
FTUS45 KGJT 250036 AAA
TAFGJT
TAF AMD
KGJT 250036Z 2501/2524 15010G18KT P6SM VCSH FEW070 BKN110
     FM250200 17010KT P6SM SCT070 BKN110
     FM250600 12012G18KT P6SM BKN080
     FM251200 12010KT P6SM -SHRA OVC025
     FM251700 27010G15KT P6SM VCSH SCT030 OVC050
      TEMPO 2520/2524 VRB15G30KT 5SM -TSRA SCT030 BKN040CB=



000
FTUS45 KGJT 242339
TAFGJT
TAF
KGJT 242339Z 2500/2524 09008KT P6SM VCSH FEW050 SCT070 BKN110
     FM250200 17010KT P6SM SCT070 BKN110
     FM250600 12012G18KT P6SM BKN080
     FM251200 12010KT P6SM -SHRA OVC025
     FM251700 27010G15KT P6SM VCSH SCT030 OVC050
      TEMPO 2520/2524 VRB15G30KT 5SM -TSRA SCT030 BKN040CB=



000
FTUS45 KGJT 242339
TAFGJT
TAF
KGJT 242339Z 2500/2524 09008KT P6SM VCSH FEW050 SCT070 BKN110
     FM250200 17010KT P6SM SCT070 BKN110
     FM250600 12012G18KT P6SM BKN080
     FM251200 12010KT P6SM -SHRA OVC025
     FM251700 27010G15KT P6SM VCSH SCT030 OVC050
      TEMPO 2520/2524 VRB15G30KT 5SM -TSRA SCT030 BKN040CB=



000
FTUS45 KGJT 242339
TAFGJT
TAF
KGJT 242339Z 2500/2524 09008KT P6SM VCSH FEW050 SCT070 BKN110
     FM250200 17010KT P6SM SCT070 BKN110
     FM250600 12012G18KT P6SM BKN080
     FM251200 12010KT P6SM -SHRA OVC025
     FM251700 27010G15KT P6SM VCSH SCT030 OVC050
      TEMPO 2520/2524 VRB15G30KT 5SM -TSRA SCT030 BKN040CB=



000
FTUS45 KGJT 242234 AAC
TAFGJT
TAF AMD
KGJT 242234Z 2423/2518 15008KT P6SM VCSH FEW050 SCT070 BKN110
     FM250200 17010KT P6SM SCT070 BKN110
     FM250600 12012G18KT P6SM BKN080
     FM251200 12010KT P6SM -SHRA OVC025
     FM251700 27010G15KT P6SM VCSH SCT030 OVC040=



000
FTUS45 KGJT 242234 AAC
TAFGJT
TAF AMD
KGJT 242234Z 2423/2518 15008KT P6SM VCSH FEW050 SCT070 BKN110
     FM250200 17010KT P6SM SCT070 BKN110
     FM250600 12012G18KT P6SM BKN080
     FM251200 12010KT P6SM -SHRA OVC025
     FM251700 27010G15KT P6SM VCSH SCT030 OVC040=



000
FTUS45 KGJT 242118 AAB
TAFGJT
TAF AMD
KGJT 242118Z 2421/2518 16008KT P6SM VCSH FEW050 SCT070 BKN120
     FM250200 17010KT P6SM SCT070 BKN110
     FM250600 12012G18KT P6SM BKN080
     FM251200 12010KT P6SM -SHRA OVC025=



000
FTUS45 KGJT 242118 AAB
TAFGJT
TAF AMD
KGJT 242118Z 2421/2518 16008KT P6SM VCSH FEW050 SCT070 BKN120
     FM250200 17010KT P6SM SCT070 BKN110
     FM250600 12012G18KT P6SM BKN080
     FM251200 12010KT P6SM -SHRA OVC025=



000
FTUS45 KGJT 241738
TAFGJT
TAF
KGJT 241738Z 2418/2518 27008KT P6SM VCTS SCT070CB
     FM242100 30012G22KT P6SM VCSH SCT070
     FM250200 17010KT P6SM SCT070 BKN110
     FM250600 12012G18KT P6SM BKN080
     FM251200 12010KT P6SM -SHRA OVC025=



000
FTUS45 KGJT 241738
TAFGJT
TAF
KGJT 241738Z 2418/2518 27008KT P6SM VCTS SCT070CB
     FM242100 30012G22KT P6SM VCSH SCT070
     FM250200 17010KT P6SM SCT070 BKN110
     FM250600 12012G18KT P6SM BKN080
     FM251200 12010KT P6SM -SHRA OVC025=



000
FTUS45 KGJT 241125
TAFGJT
TAF
KGJT 241125Z 2412/2512 14008KT P6SM SCT110 SCT250
     FM241700 31008KT P6SM SCT070 BKN110
     FM242100 32012G22KT P6SM VCSH SCT070 BKN110
     FM250200 17008KT P6SM FEW080 SCT110
     FM250600 14009KT P6SM VCSH BKN080=



000
FTUS45 KGJT 241125
TAFGJT
TAF
KGJT 241125Z 2412/2512 14008KT P6SM SCT110 SCT250
     FM241700 31008KT P6SM SCT070 BKN110
     FM242100 32012G22KT P6SM VCSH SCT070 BKN110
     FM250200 17008KT P6SM FEW080 SCT110
     FM250600 14009KT P6SM VCSH BKN080=



000
FTUS45 KGJT 241125
TAFGJT
TAF
KGJT 241125Z 2412/2512 14008KT P6SM SCT110 SCT250
     FM241700 31008KT P6SM SCT070 BKN110
     FM242100 32012G22KT P6SM VCSH SCT070 BKN110
     FM250200 17008KT P6SM FEW080 SCT110
     FM250600 14009KT P6SM VCSH BKN080=



000
FTUS45 KGJT 241125
TAFGJT
TAF
KGJT 241125Z 2412/2512 14008KT P6SM SCT110 SCT250
     FM241700 31008KT P6SM SCT070 BKN110
     FM242100 32012G22KT P6SM VCSH SCT070 BKN110
     FM250200 17008KT P6SM FEW080 SCT110
     FM250600 14009KT P6SM VCSH BKN080=



000
FTUS45 KGJT 240532
TAFGJT
TAF
KGJT 240532Z 2406/2506 11010KT P6SM SCT250
     FM241500 14008KT P6SM FEW250
     FM241700 31008KT P6SM SCT070
     FM242100 32012G22KT P6SM VCSH SCT070 BKN110
     FM250200 17008KT P6SM FEW080 SCT110=



000
FTUS45 KGJT 240532
TAFGJT
TAF
KGJT 240532Z 2406/2506 11010KT P6SM SCT250
     FM241500 14008KT P6SM FEW250
     FM241700 31008KT P6SM SCT070
     FM242100 32012G22KT P6SM VCSH SCT070 BKN110
     FM250200 17008KT P6SM FEW080 SCT110=



000
FTUS45 KGJT 240532
TAFGJT
TAF
KGJT 240532Z 2406/2506 11010KT P6SM SCT250
     FM241500 14008KT P6SM FEW250
     FM241700 31008KT P6SM SCT070
     FM242100 32012G22KT P6SM VCSH SCT070 BKN110
     FM250200 17008KT P6SM FEW080 SCT110=



000
FTUS45 KGJT 240105 AAB
TAFGJT
TAF AMD
KGJT 240105Z 2401/2424 14015G25KT P6SM VCTS BKN060CB
     FM240200 15008KT P6SM SCT060 BKN200
     FM240600 11010KT P6SM SCT250
     FM241500 14010KT P6SM SKC
     FM241700 31008KT P6SM SCT070
     FM242100 32012G22KT P6SM VCSH SCT050 BKN070=



000
FTUS45 KGJT 240105 AAB
TAFGJT
TAF AMD
KGJT 240105Z 2401/2424 14015G25KT P6SM VCTS BKN060CB
     FM240200 15008KT P6SM SCT060 BKN200
     FM240600 11010KT P6SM SCT250
     FM241500 14010KT P6SM SKC
     FM241700 31008KT P6SM SCT070
     FM242100 32012G22KT P6SM VCSH SCT050 BKN070=



000
FTUS45 KGJT 232340
TAFGJT
TAF
KGJT 232340Z 2400/2424 27012G20KT P6SM SCT070 BKN100
     FM240200 15008KT P6SM SCT100 BKN200
     FM240600 11010KT P6SM SCT250
     FM241500 14010KT P6SM SKC
     FM241700 31008KT P6SM SCT070
     FM242100 32012G22KT P6SM VCSH SCT050 BKN070=



000
FTUS45 KGJT 232340
TAFGJT
TAF
KGJT 232340Z 2400/2424 27012G20KT P6SM SCT070 BKN100
     FM240200 15008KT P6SM SCT100 BKN200
     FM240600 11010KT P6SM SCT250
     FM241500 14010KT P6SM SKC
     FM241700 31008KT P6SM SCT070
     FM242100 32012G22KT P6SM VCSH SCT050 BKN070=



000
FTUS45 KGJT 232340
TAFGJT
TAF
KGJT 232340Z 2400/2424 27012G20KT P6SM SCT070 BKN100
     FM240200 15008KT P6SM SCT100 BKN200
     FM240600 11010KT P6SM SCT250
     FM241500 14010KT P6SM SKC
     FM241700 31008KT P6SM SCT070
     FM242100 32012G22KT P6SM VCSH SCT050 BKN070=



000
FTUS45 KGJT 232340
TAFGJT
TAF
KGJT 232340Z 2400/2424 27012G20KT P6SM SCT070 BKN100
     FM240200 15008KT P6SM SCT100 BKN200
     FM240600 11010KT P6SM SCT250
     FM241500 14010KT P6SM SKC
     FM241700 31008KT P6SM SCT070
     FM242100 32012G22KT P6SM VCSH SCT050 BKN070=



000
FTUS45 KGJT 232310 AAB
TAFGJT
TAF AMD
KGJT 232310Z 2323/2418 27012G20KT P6SM SCT070 BKN100
     FM240200 15008KT P6SM SCT100 BKN200
     FM240600 11010KT P6SM SCT250
     FM241500 14010KT P6SM SKC=



000
FTUS45 KGJT 232310 AAB
TAFGJT
TAF AMD
KGJT 232310Z 2323/2418 27012G20KT P6SM SCT070 BKN100
     FM240200 15008KT P6SM SCT100 BKN200
     FM240600 11010KT P6SM SCT250
     FM241500 14010KT P6SM SKC=



000
FTUS45 KGJT 231722
TAFGJT
TAF
KGJT 231722Z 2318/2418 15009KT P6SM FEW100
     FM231900 21008KT P6SM SCT100
     FM232100 27012G20KT P6SM VCTS SCT100CB BKN150
     FM240200 15008KT P6SM SCT100 BKN200
     FM240600 11010KT P6SM SCT250
     FM241500 14010KT P6SM SKC=



000
FTUS45 KGJT 231722
TAFGJT
TAF
KGJT 231722Z 2318/2418 15009KT P6SM FEW100
     FM231900 21008KT P6SM SCT100
     FM232100 27012G20KT P6SM VCTS SCT100CB BKN150
     FM240200 15008KT P6SM SCT100 BKN200
     FM240600 11010KT P6SM SCT250
     FM241500 14010KT P6SM SKC=



000
FTUS45 KGJT 231722
TAFGJT
TAF
KGJT 231722Z 2318/2418 15009KT P6SM FEW100
     FM231900 21008KT P6SM SCT100
     FM232100 27012G20KT P6SM VCTS SCT100CB BKN150
     FM240200 15008KT P6SM SCT100 BKN200
     FM240600 11010KT P6SM SCT250
     FM241500 14010KT P6SM SKC=



000
FTUS45 KGJT 231120
TAFGJT
TAF
KGJT 231120Z 2312/2412 09008KT P6SM SCT150
     FM231800 28012KT P6SM SCT090 SCT150
     FM240200 15008KT P6SM SCT120 BKN250
     FM240600 11010KT P6SM BKN250=



000
FTUS45 KGJT 231120
TAFGJT
TAF
KGJT 231120Z 2312/2412 09008KT P6SM SCT150
     FM231800 28012KT P6SM SCT090 SCT150
     FM240200 15008KT P6SM SCT120 BKN250
     FM240600 11010KT P6SM BKN250=



000
FTUS45 KGJT 231120
TAFGJT
TAF
KGJT 231120Z 2312/2412 09008KT P6SM SCT150
     FM231800 28012KT P6SM SCT090 SCT150
     FM240200 15008KT P6SM SCT120 BKN250
     FM240600 11010KT P6SM BKN250=



000
FTUS45 KGJT 231120
TAFGJT
TAF
KGJT 231120Z 2312/2412 09008KT P6SM SCT150
     FM231800 28012KT P6SM SCT090 SCT150
     FM240200 15008KT P6SM SCT120 BKN250
     FM240600 11010KT P6SM BKN250=



000
FTUS45 KGJT 230521
TAFGJT
TAF
KGJT 230521Z 2306/2406 12010KT P6SM VCSH BKN110
     FM230800 11011KT P6SM SCT200
     FM231800 28012KT P6SM SCT090 SCT150
     FM240200 15008KT P6SM SCT120 BKN250=



000
FTUS45 KGJT 230521
TAFGJT
TAF
KGJT 230521Z 2306/2406 12010KT P6SM VCSH BKN110
     FM230800 11011KT P6SM SCT200
     FM231800 28012KT P6SM SCT090 SCT150
     FM240200 15008KT P6SM SCT120 BKN250=



000
FTUS45 KGJT 230521
TAFGJT
TAF
KGJT 230521Z 2306/2406 12010KT P6SM VCSH BKN110
     FM230800 11011KT P6SM SCT200
     FM231800 28012KT P6SM SCT090 SCT150
     FM240200 15008KT P6SM SCT120 BKN250=



000
FTUS45 KGJT 230521
TAFGJT
TAF
KGJT 230521Z 2306/2406 12010KT P6SM VCSH BKN110
     FM230800 11011KT P6SM SCT200
     FM231800 28012KT P6SM SCT090 SCT150
     FM240200 15008KT P6SM SCT120 BKN250=



000
FTUS45 KGJT 222330
TAFGJT
TAF
KGJT 222330Z 2300/2324 34010G23KT P6SM VCTS SCT070CB BKN100
      TEMPO 2300/2302 VRB15G25KT -TSRA BKN060CB BKN090
     FM230200 12010KT P6SM SCT070 BKN110
     FM230800 11011KT P6SM SCT200
     FM231800 28012KT P6SM SCT090 SCT150=



000
FTUS45 KGJT 222330
TAFGJT
TAF
KGJT 222330Z 2300/2324 34010G23KT P6SM VCTS SCT070CB BKN100
      TEMPO 2300/2302 VRB15G25KT -TSRA BKN060CB BKN090
     FM230200 12010KT P6SM SCT070 BKN110
     FM230800 11011KT P6SM SCT200
     FM231800 28012KT P6SM SCT090 SCT150=



000
FTUS45 KGJT 222330
TAFGJT
TAF
KGJT 222330Z 2300/2324 34010G23KT P6SM VCTS SCT070CB BKN100
      TEMPO 2300/2302 VRB15G25KT -TSRA BKN060CB BKN090
     FM230200 12010KT P6SM SCT070 BKN110
     FM230800 11011KT P6SM SCT200
     FM231800 28012KT P6SM SCT090 SCT150=



000
FTUS45 KGJT 222330
TAFGJT
TAF
KGJT 222330Z 2300/2324 34010G23KT P6SM VCTS SCT070CB BKN100
      TEMPO 2300/2302 VRB15G25KT -TSRA BKN060CB BKN090
     FM230200 12010KT P6SM SCT070 BKN110
     FM230800 11011KT P6SM SCT200
     FM231800 28012KT P6SM SCT090 SCT150=



000
FTUS45 KGJT 222207 AAB
TAFGJT
TAF AMD
KGJT 222207Z 2222/2318 20012KT P6SM VCTS SCT090CB OVC110
      TEMPO 2222/2301 VRB15G25KT -TSRA BKN060CB BKN090
     FM230200 12010KT P6SM SCT070 BKN110
     FM230800 11011KT P6SM SCT200=



000
FTUS45 KGJT 222207 AAB
TAFGJT
TAF AMD
KGJT 222207Z 2222/2318 20012KT P6SM VCTS SCT090CB OVC110
      TEMPO 2222/2301 VRB15G25KT -TSRA BKN060CB BKN090
     FM230200 12010KT P6SM SCT070 BKN110
     FM230800 11011KT P6SM SCT200=



000
FTUS45 KGJT 222207 AAB
TAFGJT
TAF AMD
KGJT 222207Z 2222/2318 20012KT P6SM VCTS SCT090CB OVC110
      TEMPO 2222/2301 VRB15G25KT -TSRA BKN060CB BKN090
     FM230200 12010KT P6SM SCT070 BKN110
     FM230800 11011KT P6SM SCT200=



000
FTUS45 KGJT 221738
TAFGJT
TAF
KGJT 221738Z 2218/2318 26007KT P6SM SCT110
     FM222000 29008KT P6SM SCT080 BKN110
     FM222300 29008KT P6SM VCSH FEW060 BKN090
      TEMPO 2223/2302 VRB15G25KT -SHRA BKN060
     FM230200 12010KT P6SM SCT070 BKN110
     FM230800 11011KT P6SM SCT200=



000
FTUS45 KGJT 221738
TAFGJT
TAF
KGJT 221738Z 2218/2318 26007KT P6SM SCT110
     FM222000 29008KT P6SM SCT080 BKN110
     FM222300 29008KT P6SM VCSH FEW060 BKN090
      TEMPO 2223/2302 VRB15G25KT -SHRA BKN060
     FM230200 12010KT P6SM SCT070 BKN110
     FM230800 11011KT P6SM SCT200=



000
FTUS45 KGJT 221120
TAFGJT
TAF
KGJT 221120Z 2212/2312 12004KT P6SM SCT150
     FM221700 18007KT P6SM BKN120
     FM222000 28008KT P6SM SCT080 BKN120
     FM230000 18008KT P6SM BKN120
     FM230500 10010KT P6SM SCT150=



000
FTUS45 KGJT 221120
TAFGJT
TAF
KGJT 221120Z 2212/2312 12004KT P6SM SCT150
     FM221700 18007KT P6SM BKN120
     FM222000 28008KT P6SM SCT080 BKN120
     FM230000 18008KT P6SM BKN120
     FM230500 10010KT P6SM SCT150=



000
FTUS45 KGJT 221120
TAFGJT
TAF
KGJT 221120Z 2212/2312 12004KT P6SM SCT150
     FM221700 18007KT P6SM BKN120
     FM222000 28008KT P6SM SCT080 BKN120
     FM230000 18008KT P6SM BKN120
     FM230500 10010KT P6SM SCT150=



000
FTUS45 KGJT 221120
TAFGJT
TAF
KGJT 221120Z 2212/2312 12004KT P6SM SCT150
     FM221700 18007KT P6SM BKN120
     FM222000 28008KT P6SM SCT080 BKN120
     FM230000 18008KT P6SM BKN120
     FM230500 10010KT P6SM SCT150=



    US Dept of Commerce
    National Oceanic and Atmospheric Administration
    National Weather Service
    1325 East West Highway
    Silver Spring, MD 20910
    Page Author: NWS Internet Services Team
Disclaimer
Information Quality
Credits
Glossary
Privacy Policy
Freedom of Information Act (FOIA)
About Us
Career Opportunities